sensor_id;sensor_type;location;lat;lon;timestamp;pressure;altitude;pressure_sealevel;temperature;humidity
59493;BME280;45497;43.996;22.876;2023-02-12T00:01:32;102319.19;;;3.91;42.40
59493;BME280;45497;43.996;22.876;2023-02-12T00:03:58;102314.16;;;4.02;42.23
59493;BME280;45497;43.996;22.876;2023-02-12T00:06:24;102320.09;;;4.06;42.29
59493;BME280;45497;43.996;22.876;2023-02-12T00:08:51;102327.69;;;4.10;41.89
59493;BME280;45497;43.996;22.876;2023-02-12T00:11:21;102332.69;;;4.15;41.58
59493;BME280;45497;43.996;22.876;2023-02-12T00:13:46;102317.00;;;4.44;41.80
59493;BME280;45497;43.996;22.876;2023-02-12T00:16:15;102323.00;;;4.46;41.32
59493;BME280;45497;43.996;22.876;2023-02-12T00:18:42;102327.56;;;4.28;41.23
59493;BME280;45497;43.996;22.876;2023-02-12T00:21:08;102327.94;;;4.21;42.04
59493;BME280;45497;43.996;22.876;2023-02-12T00:23:33;102306.81;;;3.93;42.03
59493;BME280;45497;43.996;22.876;2023-02-12T00:25:59;102298.50;;;4.00;41.80
59493;BME280;45497;43.996;22.876;2023-02-12T00:28:25;102289.19;;;4.11;41.22
59493;BME280;45497;43.996;22.876;2023-02-12T00:30:51;102308.97;;;4.16;41.22
59493;BME280;45497;43.996;22.876;2023-02-12T00:33:16;102298.44;;;4.32;40.94
59493;BME280;45497;43.996;22.876;2023-02-12T00:35:42;102296.34;;;4.37;40.72
59493;BME280;45497;43.996;22.876;2023-02-12T00:38:08;102289.53;;;4.49;40.68
59493;BME280;45497;43.996;22.876;2023-02-12T00:40:33;102288.72;;;4.49;40.22
59493;BME280;45497;43.996;22.876;2023-02-12T00:42:58;102272.00;;;4.64;39.90
59493;BME280;45497;43.996;22.876;2023-02-12T00:45:24;102279.44;;;4.57;39.62
59493;BME280;45497;43.996;22.876;2023-02-12T00:47:49;102266.47;;;4.54;40.34
59493;BME280;45497;43.996;22.876;2023-02-12T00:50:15;102281.56;;;4.36;39.91
59493;BME280;45497;43.996;22.876;2023-02-12T00:52:41;102273.03;;;4.47;39.98
59493;BME280;45497;43.996;22.876;2023-02-12T00:55:06;102273.16;;;4.60;40.20
59493;BME280;45497;43.996;22.876;2023-02-12T00:57:32;102262.53;;;4.47;39.99
59493;BME280;45497;43.996;22.876;2023-02-12T00:59:58;102272.75;;;4.52;40.33
59493;BME280;45497;43.996;22.876;2023-02-12T01:02:23;102267.41;;;4.53;40.04
59493;BME280;45497;43.996;22.876;2023-02-12T01:04:49;102271.81;;;4.53;40.58
59493;BME280;45497;43.996;22.876;2023-02-12T01:07:14;102273.06;;;4.62;40.21
59493;BME280;45497;43.996;22.876;2023-02-12T01:09:40;102272.00;;;4.64;39.93
59493;BME280;45497;43.996;22.876;2023-02-12T01:12:05;102285.06;;;4.66;40.13
59493;BME280;45497;43.996;22.876;2023-02-12T01:14:31;102282.91;;;4.72;40.34
59493;BME280;45497;43.996;22.876;2023-02-12T01:16:57;102280.09;;;4.75;40.48
59493;BME280;45497;43.996;22.876;2023-02-12T01:19:22;102275.13;;;4.85;40.25
59493;BME280;45497;43.996;22.876;2023-02-12T01:21:48;102292.47;;;4.73;40.30
59493;BME280;45497;43.996;22.876;2023-02-12T01:24:13;102290.22;;;4.67;40.62
59493;BME280;45497;43.996;22.876;2023-02-12T01:26:38;102293.34;;;4.74;40.53
59493;BME280;45497;43.996;22.876;2023-02-12T01:29:07;102278.66;;;4.70;40.24
59493;BME280;45497;43.996;22.876;2023-02-12T01:31:36;102278.94;;;4.51;40.57
59493;BME280;45497;43.996;22.876;2023-02-12T01:34:04;102272.19;;;4.32;41.20
59493;BME280;45497;43.996;22.876;2023-02-12T01:36:30;102272.81;;;4.21;41.28
59493;BME280;45497;43.996;22.876;2023-02-12T01:38:56;102293.94;;;4.34;41.16
59493;BME280;45497;43.996;22.876;2023-02-12T01:41:25;102298.50;;;4.31;41.28
59493;BME280;45497;43.996;22.876;2023-02-12T01:44:04;102286.84;;;4.51;40.29
59493;BME280;45497;43.996;22.876;2023-02-12T01:46:30;102290.94;;;4.55;40.48
59493;BME280;45497;43.996;22.876;2023-02-12T01:48:56;102291.81;;;4.70;40.38
59493;BME280;45497;43.996;22.876;2023-02-12T01:51:22;102285.72;;;4.69;40.24
59493;BME280;45497;43.996;22.876;2023-02-12T01:53:51;102284.13;;;4.67;40.42
59493;BME280;45497;43.996;22.876;2023-02-12T01:56:19;102285.50;;;4.44;40.42
59493;BME280;45497;43.996;22.876;2023-02-12T01:58:46;102283.81;;;4.43;40.56
59493;BME280;45497;43.996;22.876;2023-02-12T02:01:19;102266.97;;;4.61;40.70
59493;BME280;45497;43.996;22.876;2023-02-12T02:03:49;102270.34;;;4.77;39.48
59493;BME280;45497;43.996;22.876;2023-02-12T02:06:19;102277.84;;;4.84;39.44
59493;BME280;45497;43.996;22.876;2023-02-12T02:08:47;102286.69;;;4.83;39.55
59493;BME280;45497;43.996;22.876;2023-02-12T02:11:13;102269.03;;;4.85;39.40
59493;BME280;45497;43.996;22.876;2023-02-12T02:13:57;102284.50;;;5.04;39.76
59493;BME280;45497;43.996;22.876;2023-02-12T02:16:48;102275.03;;;5.01;39.86
59493;BME280;45497;43.996;22.876;2023-02-12T02:30:42;102287.09;;;5.18;39.52
59493;BME280;45497;43.996;22.876;2023-02-12T02:33:38;102288.03;;;5.31;40.06
59493;BME280;45497;43.996;22.876;2023-02-12T02:41:20;102294.22;;;5.72;39.87
59493;BME280;45497;43.996;22.876;2023-02-12T02:43:52;102290.47;;;5.62;39.42
59493;BME280;45497;43.996;22.876;2023-02-12T02:46:32;102285.22;;;5.62;39.90
59493;BME280;45497;43.996;22.876;2023-02-12T02:49:09;102294.91;;;5.61;39.84
59493;BME280;45497;43.996;22.876;2023-02-12T02:51:40;102283.25;;;5.65;39.60
59493;BME280;45497;43.996;22.876;2023-02-12T02:54:20;102281.91;;;5.72;39.69
59493;BME280;45497;43.996;22.876;2023-02-12T02:56:52;102285.25;;;5.89;40.48
59493;BME280;45497;43.996;22.876;2023-02-12T02:59:27;102288.22;;;5.97;40.26
59493;BME280;45497;43.996;22.876;2023-02-12T03:02:00;102294.03;;;6.02;40.13
59493;BME280;45497;43.996;22.876;2023-02-12T03:04:39;102283.22;;;6.07;40.37
59493;BME280;45497;43.996;22.876;2023-02-12T03:07:09;102290.84;;;5.97;39.44
59493;BME280;45497;43.996;22.876;2023-02-12T03:10:11;102286.56;;;5.96;39.59
59493;BME280;45497;43.996;22.876;2023-02-12T03:12:39;102289.63;;;5.88;39.76
59493;BME280;45497;43.996;22.876;2023-02-12T03:15:14;102291.16;;;5.92;40.04
59493;BME280;45497;43.996;22.876;2023-02-12T03:17:45;102279.72;;;5.79;38.94
59493;BME280;45497;43.996;22.876;2023-02-12T03:22:45;102295.06;;;5.72;39.09
59493;BME280;45497;43.996;22.876;2023-02-12T03:25:15;102297.03;;;5.69;38.66
59493;BME280;45497;43.996;22.876;2023-02-12T03:28:06;102298.13;;;5.79;38.04
59493;BME280;45497;43.996;22.876;2023-02-12T03:31:02;102296.25;;;5.81;38.05
59493;BME280;45497;43.996;22.876;2023-02-12T03:36:28;102307.78;;;5.66;37.71
59493;BME280;45497;43.996;22.876;2023-02-12T03:38:57;102305.34;;;5.63;37.46
59493;BME280;45497;43.996;22.876;2023-02-12T03:41:38;102312.50;;;5.61;37.74
59493;BME280;45497;43.996;22.876;2023-02-12T03:44:32;102310.50;;;5.64;37.23
59493;BME280;45497;43.996;22.876;2023-02-12T03:47:17;102301.22;;;5.59;37.35
59493;BME280;45497;43.996;22.876;2023-02-12T03:52:09;102307.41;;;5.85;37.62
59493;BME280;45497;43.996;22.876;2023-02-12T03:54:35;102308.81;;;5.90;37.27
59493;BME280;45497;43.996;22.876;2023-02-12T03:57:06;102305.25;;;5.91;37.60
59493;BME280;45497;43.996;22.876;2023-02-12T03:59:34;102314.28;;;5.87;37.73
59493;BME280;45497;43.996;22.876;2023-02-12T04:02:00;102305.72;;;5.98;37.68
59493;BME280;45497;43.996;22.876;2023-02-12T04:04:26;102308.34;;;5.98;37.47
59493;BME280;45497;43.996;22.876;2023-02-12T04:06:53;102315.19;;;6.01;37.61
59493;BME280;45497;43.996;22.876;2023-02-12T04:09:21;102308.59;;;5.93;37.65
59493;BME280;45497;43.996;22.876;2023-02-12T04:21:19;102321.19;;;5.75;37.58
59493;BME280;45497;43.996;22.876;2023-02-12T04:26:16;102318.94;;;5.69;37.45
59493;BME280;45497;43.996;22.876;2023-02-12T04:31:54;102319.22;;;5.65;37.71
59493;BME280;45497;43.996;22.876;2023-02-12T04:34:41;102313.63;;;5.57;38.18
59493;BME280;45497;43.996;22.876;2023-02-12T04:37:18;102311.19;;;5.53;37.97
59493;BME280;45497;43.996;22.876;2023-02-12T04:39:45;102311.75;;;5.59;37.64
59493;BME280;45497;43.996;22.876;2023-02-12T04:42:12;102303.84;;;5.59;37.94
59493;BME280;45497;43.996;22.876;2023-02-12T04:44:40;102306.53;;;5.71;37.70
59493;BME280;45497;43.996;22.876;2023-02-12T04:47:06;102304.41;;;5.64;37.69
59493;BME280;45497;43.996;22.876;2023-02-12T04:49:32;102317.63;;;5.77;37.35
59493;BME280;45497;43.996;22.876;2023-02-12T04:51:57;102308.84;;;5.76;37.54
59493;BME280;45497;43.996;22.876;2023-02-12T04:54:23;102324.94;;;5.71;37.38
59493;BME280;45497;43.996;22.876;2023-02-12T04:56:49;102313.69;;;5.69;37.62
59493;BME280;45497;43.996;22.876;2023-02-12T04:59:15;102314.63;;;5.68;37.60
59493;BME280;45497;43.996;22.876;2023-02-12T05:01:41;102322.88;;;5.77;37.63
59493;BME280;45497;43.996;22.876;2023-02-12T05:04:09;102319.38;;;5.76;37.50
59493;BME280;45497;43.996;22.876;2023-02-12T05:06:37;102313.28;;;5.75;37.76
59493;BME280;45497;43.996;22.876;2023-02-12T05:09:03;102325.41;;;5.78;37.60
59493;BME280;45497;43.996;22.876;2023-02-12T05:11:29;102328.03;;;5.78;37.84
59493;BME280;45497;43.996;22.876;2023-02-12T05:13:57;102327.50;;;5.73;37.75
59493;BME280;45497;43.996;22.876;2023-02-12T05:16:23;102334.25;;;5.77;38.24
59493;BME280;45497;43.996;22.876;2023-02-12T05:18:48;102332.91;;;5.84;37.61
59493;BME280;45497;43.996;22.876;2023-02-12T05:21:14;102326.50;;;5.88;38.60
59493;BME280;45497;43.996;22.876;2023-02-12T05:23:41;102332.97;;;5.97;38.27
59493;BME280;45497;43.996;22.876;2023-02-12T05:26:11;102346.69;;;6.02;38.18
59493;BME280;45497;43.996;22.876;2023-02-12T05:28:36;102345.06;;;6.14;37.74
59493;BME280;45497;43.996;22.876;2023-02-12T05:31:04;102350.53;;;6.24;38.12
59493;BME280;45497;43.996;22.876;2023-02-12T05:33:30;102343.34;;;6.13;38.27
59493;BME280;45497;43.996;22.876;2023-02-12T05:36:02;102349.03;;;6.07;38.32
59493;BME280;45497;43.996;22.876;2023-02-12T05:38:28;102354.41;;;6.05;38.07
59493;BME280;45497;43.996;22.876;2023-02-12T05:40:53;102355.13;;;6.07;38.69
59493;BME280;45497;43.996;22.876;2023-02-12T05:43:18;102368.28;;;6.07;38.88
59493;BME280;45497;43.996;22.876;2023-02-12T05:45:44;102365.66;;;6.07;38.41
59493;BME280;45497;43.996;22.876;2023-02-12T05:48:09;102369.97;;;6.08;38.47
59493;BME280;45497;43.996;22.876;2023-02-12T05:50:35;102378.50;;;6.12;38.81
59493;BME280;45497;43.996;22.876;2023-02-12T05:53:01;102380.50;;;6.08;39.00
59493;BME280;45497;43.996;22.876;2023-02-12T05:55:27;102376.66;;;6.14;39.10
59493;BME280;45497;43.996;22.876;2023-02-12T05:57:53;102389.41;;;6.20;38.85
59493;BME280;45497;43.996;22.876;2023-02-12T06:00:18;102392.69;;;6.24;39.09
59493;BME280;45497;43.996;22.876;2023-02-12T06:02:44;102395.22;;;6.25;38.72
59493;BME280;45497;43.996;22.876;2023-02-12T06:05:09;102397.84;;;6.25;39.23
59493;BME280;45497;43.996;22.876;2023-02-12T06:07:35;102407.31;;;6.28;38.73
59493;BME280;45497;43.996;22.876;2023-02-12T06:10:00;102409.13;;;6.27;39.32
59493;BME280;45497;43.996;22.876;2023-02-12T06:12:26;102409.97;;;6.28;39.33
59493;BME280;45497;43.996;22.876;2023-02-12T06:14:51;102405.00;;;6.23;39.42
59493;BME280;45497;43.996;22.876;2023-02-12T06:17:17;102408.75;;;6.19;39.59
59493;BME280;45497;43.996;22.876;2023-02-12T06:19:42;102418.28;;;6.22;39.71
59493;BME280;45497;43.996;22.876;2023-02-12T06:22:08;102425.63;;;6.17;39.86
59493;BME280;45497;43.996;22.876;2023-02-12T06:24:33;102428.75;;;6.09;39.71
59493;BME280;45497;43.996;22.876;2023-02-12T06:26:59;102437.31;;;6.12;39.53
59493;BME280;45497;43.996;22.876;2023-02-12T06:29:24;102430.06;;;6.16;40.05
59493;BME280;45497;43.996;22.876;2023-02-12T06:31:50;102420.34;;;6.17;39.75
59493;BME280;45497;43.996;22.876;2023-02-12T06:34:15;102425.44;;;6.20;40.44
59493;BME280;45497;43.996;22.876;2023-02-12T06:36:45;102424.31;;;6.09;40.65
59493;BME280;45497;43.996;22.876;2023-02-12T06:39:13;102432.00;;;6.27;40.52
59493;BME280;45497;43.996;22.876;2023-02-12T06:41:39;102440.31;;;6.34;40.54
59493;BME280;45497;43.996;22.876;2023-02-12T06:44:05;102440.06;;;6.51;40.77
59493;BME280;45497;43.996;22.876;2023-02-12T06:46:31;102448.06;;;6.49;40.66
59493;BME280;45497;43.996;22.876;2023-02-12T06:48:58;102453.34;;;6.49;40.68
59493;BME280;45497;43.996;22.876;2023-02-12T06:51:25;102462.34;;;6.60;40.59
59493;BME280;45497;43.996;22.876;2023-02-12T06:53:52;102461.94;;;6.66;40.91
59493;BME280;45497;43.996;22.876;2023-02-12T06:56:19;102469.34;;;6.74;40.76
59493;BME280;45497;43.996;22.876;2023-02-12T06:58:47;102474.53;;;6.88;40.80
59493;BME280;45497;43.996;22.876;2023-02-12T07:01:18;102484.13;;;6.89;40.87
59493;BME280;45497;43.996;22.876;2023-02-12T07:03:49;102482.97;;;6.93;40.95
59493;BME280;45497;43.996;22.876;2023-02-12T07:06:15;102488.13;;;6.95;41.21
59493;BME280;45497;43.996;22.876;2023-02-12T07:08:40;102488.56;;;6.88;40.95
59493;BME280;45497;43.996;22.876;2023-02-12T07:11:06;102496.09;;;6.67;41.60
59493;BME280;45497;43.996;22.876;2023-02-12T07:13:32;102497.78;;;6.68;41.71
59493;BME280;45497;43.996;22.876;2023-02-12T07:16:09;102496.00;;;6.42;42.76
59493;BME280;45497;43.996;22.876;2023-02-12T07:18:36;102488.88;;;6.29;43.29
59493;BME280;45497;43.996;22.876;2023-02-12T07:21:02;102503.66;;;6.32;43.37
59493;BME280;45497;43.996;22.876;2023-02-12T07:23:28;102499.50;;;6.28;43.33
59493;BME280;45497;43.996;22.876;2023-02-12T07:25:58;102510.31;;;6.38;43.57
59493;BME280;45497;43.996;22.876;2023-02-12T07:28:25;102515.00;;;6.47;43.81
59493;BME280;45497;43.996;22.876;2023-02-12T07:30:51;102512.16;;;6.50;43.71
59493;BME280;45497;43.996;22.876;2023-02-12T07:33:16;102514.53;;;6.67;43.19
59493;BME280;45497;43.996;22.876;2023-02-12T07:35:42;102520.72;;;6.81;44.03
59493;BME280;45497;43.996;22.876;2023-02-12T07:38:07;102518.66;;;6.99;43.44
59493;BME280;45497;43.996;22.876;2023-02-12T07:40:33;102519.28;;;7.02;42.97
59493;BME280;45497;43.996;22.876;2023-02-12T07:42:59;102524.84;;;6.98;43.45
59493;BME280;45497;43.996;22.876;2023-02-12T07:45:24;102525.69;;;6.98;43.61
59493;BME280;45497;43.996;22.876;2023-02-12T07:47:50;102513.88;;;7.04;43.26
59493;BME280;45497;43.996;22.876;2023-02-12T07:50:15;102526.59;;;7.12;43.51
59493;BME280;45497;43.996;22.876;2023-02-12T07:52:41;102527.72;;;7.07;43.14
59493;BME280;45497;43.996;22.876;2023-02-12T07:55:07;102540.69;;;6.98;43.83
59493;BME280;45497;43.996;22.876;2023-02-12T07:57:34;102544.06;;;7.13;43.42
59493;BME280;45497;43.996;22.876;2023-02-12T07:59:59;102543.25;;;7.12;43.60
59493;BME280;45497;43.996;22.876;2023-02-12T08:02:25;102534.75;;;6.94;43.72
59493;BME280;45497;43.996;22.876;2023-02-12T08:04:57;102534.72;;;6.81;43.75
59493;BME280;45497;43.996;22.876;2023-02-12T08:07:23;102538.84;;;6.58;44.55
59493;BME280;45497;43.996;22.876;2023-02-12T08:09:49;102539.34;;;6.78;44.07
59493;BME280;45497;43.996;22.876;2023-02-12T08:12:15;102542.22;;;6.87;44.11
59493;BME280;45497;43.996;22.876;2023-02-12T08:14:41;102545.66;;;6.75;44.39
59493;BME280;45497;43.996;22.876;2023-02-12T08:17:06;102547.88;;;6.68;44.60
59493;BME280;45497;43.996;22.876;2023-02-12T08:19:33;102556.09;;;6.77;44.66
59493;BME280;45497;43.996;22.876;2023-02-12T08:21:58;102555.78;;;7.08;44.22
59493;BME280;45497;43.996;22.876;2023-02-12T08:24:24;102554.69;;;7.38;44.05
59493;BME280;45497;43.996;22.876;2023-02-12T08:26:50;102549.72;;;7.46;43.48
59493;BME280;45497;43.996;22.876;2023-02-12T08:29:21;102551.81;;;7.41;43.47
59493;BME280;45497;43.996;22.876;2023-02-12T08:31:49;102557.28;;;7.25;44.05
59493;BME280;45497;43.996;22.876;2023-02-12T08:34:24;102562.41;;;7.01;44.45
59493;BME280;45497;43.996;22.876;2023-02-12T08:36:51;102568.59;;;7.27;44.17
59493;BME280;45497;43.996;22.876;2023-02-12T08:39:21;102568.47;;;7.29;43.96
59493;BME280;45497;43.996;22.876;2023-02-12T08:41:46;102559.59;;;7.17;44.18
59493;BME280;45497;43.996;22.876;2023-02-12T08:44:13;102565.09;;;7.14;44.39
59493;BME280;45497;43.996;22.876;2023-02-12T08:46:43;102577.34;;;6.88;44.49
59493;BME280;45497;43.996;22.876;2023-02-12T08:49:15;102578.94;;;6.91;44.91
59493;BME280;45497;43.996;22.876;2023-02-12T08:51:47;102577.44;;;6.86;44.98
59493;BME280;45497;43.996;22.876;2023-02-12T08:54:18;102591.22;;;6.77;45.00
59493;BME280;45497;43.996;22.876;2023-02-12T08:56:44;102583.50;;;6.47;45.97
59493;BME280;45497;43.996;22.876;2023-02-12T08:59:10;102574.53;;;6.49;45.84
59493;BME280;45497;43.996;22.876;2023-02-12T09:01:37;102581.38;;;6.66;46.05
59493;BME280;45497;43.996;22.876;2023-02-12T09:04:04;102592.53;;;6.43;46.11
59493;BME280;45497;43.996;22.876;2023-02-12T09:06:32;102596.34;;;6.51;45.97
59493;BME280;45497;43.996;22.876;2023-02-12T09:08:59;102614.78;;;6.66;45.82
59493;BME280;45497;43.996;22.876;2023-02-12T09:11:26;102610.00;;;6.58;45.64
59493;BME280;45497;43.996;22.876;2023-02-12T09:13:56;102608.00;;;6.62;45.96
59493;BME280;45497;43.996;22.876;2023-02-12T09:16:23;102605.31;;;6.91;45.43
59493;BME280;45497;43.996;22.876;2023-02-12T09:18:49;102611.81;;;7.12;44.59
59493;BME280;45497;43.996;22.876;2023-02-12T09:21:15;102607.03;;;6.77;45.35
59493;BME280;45497;43.996;22.876;2023-02-12T09:23:42;102619.63;;;6.86;45.39
59493;BME280;45497;43.996;22.876;2023-02-12T09:26:11;102625.03;;;7.25;44.82
59493;BME280;45497;43.996;22.876;2023-02-12T09:28:37;102646.28;;;7.36;44.46
59493;BME280;45497;43.996;22.876;2023-02-12T09:31:05;102630.97;;;7.28;44.22
59493;BME280;45497;43.996;22.876;2023-02-12T09:33:30;102632.78;;;7.41;44.18
59493;BME280;45497;43.996;22.876;2023-02-12T09:36:03;102637.06;;;7.82;43.82
59493;BME280;45497;43.996;22.876;2023-02-12T09:38:28;102632.53;;;8.10;43.20
59493;BME280;45497;43.996;22.876;2023-02-12T09:43:57;102636.97;;;8.22;42.43
59493;BME280;45497;43.996;22.876;2023-02-12T09:46:31;102631.59;;;7.98;42.77
59493;BME280;45497;43.996;22.876;2023-02-12T09:51:29;102635.28;;;8.08;42.37
59493;BME280;45497;43.996;22.876;2023-02-12T09:54:04;102637.91;;;8.34;41.84
59493;BME280;45497;43.996;22.876;2023-02-12T09:56:33;102645.31;;;8.54;41.41
59493;BME280;45497;43.996;22.876;2023-02-12T09:59:00;102630.75;;;8.73;41.36
59493;BME280;45497;43.996;22.876;2023-02-12T10:01:28;102633.03;;;8.53;41.26
59493;BME280;45497;43.996;22.876;2023-02-12T10:03:54;102639.38;;;8.51;40.99
59493;BME280;45497;43.996;22.876;2023-02-12T10:22:51;102664.66;;;8.29;42.09
59493;BME280;45497;43.996;22.876;2023-02-12T10:25:37;102662.41;;;8.61;42.02
59493;BME280;45497;43.996;22.876;2023-02-12T10:28:12;102648.50;;;8.84;41.37
59493;BME280;45497;43.996;22.876;2023-02-12T10:33:27;102643.13;;;9.09;40.99
59493;BME280;45497;43.996;22.876;2023-02-12T10:36:06;102646.72;;;8.71;41.00
59493;BME280;45497;43.996;22.876;2023-02-12T10:38:41;102647.97;;;8.78;41.82
59493;BME280;45497;43.996;22.876;2023-02-12T10:41:12;102645.69;;;8.98;41.22
59493;BME280;45497;43.996;22.876;2023-02-12T10:43:40;102645.53;;;8.88;41.20
59493;BME280;45497;43.996;22.876;2023-02-12T10:46:05;102662.84;;;8.68;41.84
59493;BME280;45497;43.996;22.876;2023-02-12T10:48:34;102654.25;;;8.39;42.10
59493;BME280;45497;43.996;22.876;2023-02-12T10:53:40;102648.41;;;9.09;41.12
59493;BME280;45497;43.996;22.876;2023-02-12T10:56:19;102661.34;;;9.01;40.87
59493;BME280;45497;43.996;22.876;2023-02-12T10:58:52;102669.22;;;8.90;40.79
59493;BME280;45497;43.996;22.876;2023-02-12T11:01:39;102663.69;;;8.93;40.51
59493;BME280;45497;43.996;22.876;2023-02-12T11:04:25;102664.09;;;9.24;40.75
59493;BME280;45497;43.996;22.876;2023-02-12T11:07:02;102681.06;;;8.97;40.60
59493;BME280;45497;43.996;22.876;2023-02-12T11:09:49;102669.34;;;8.88;40.90
59493;BME280;45497;43.996;22.876;2023-02-12T11:14:56;102657.47;;;8.94;40.61
59493;BME280;45497;43.996;22.876;2023-02-12T11:17:32;102668.97;;;9.06;40.35
59493;BME280;45497;43.996;22.876;2023-02-12T11:23:00;102663.59;;;9.43;39.90
59493;BME280;45497;43.996;22.876;2023-02-12T11:25:32;102672.31;;;9.32;40.20
59493;BME280;45497;43.996;22.876;2023-02-12T11:28:18;102670.94;;;9.15;40.20
59493;BME280;45497;43.996;22.876;2023-02-12T11:31:01;102676.28;;;9.26;40.04
59493;BME280;45497;43.996;22.876;2023-02-12T11:35:58;102667.19;;;9.42;39.46
59493;BME280;45497;43.996;22.876;2023-02-12T11:38:30;102681.34;;;9.65;40.49
59493;BME280;45497;43.996;22.876;2023-02-12T11:41:01;102684.31;;;9.95;41.35
59493;BME280;45497;43.996;22.876;2023-02-12T11:43:28;102684.88;;;10.80;39.95
59493;BME280;45497;43.996;22.876;2023-02-12T11:45:55;102690.41;;;10.65;39.01
59493;BME280;45497;43.996;22.876;2023-02-12T11:48:40;102692.56;;;10.94;38.43
59493;BME280;45497;43.996;22.876;2023-02-12T11:51:21;102680.72;;;11.09;38.07
59493;BME280;45497;43.996;22.876;2023-02-12T11:53:52;102676.97;;;11.44;37.80
59493;BME280;45497;43.996;22.876;2023-02-12T11:56:18;102674.81;;;11.38;36.36
59493;BME280;45497;43.996;22.876;2023-02-12T11:58:46;102674.03;;;10.60;36.40
59493;BME280;45497;43.996;22.876;2023-02-12T12:06:26;102681.59;;;10.20;36.44
59493;BME280;45497;43.996;22.876;2023-02-12T12:11:34;102680.00;;;10.06;36.42
59493;BME280;45497;43.996;22.876;2023-02-12T12:14:15;102680.34;;;9.90;36.05
59493;BME280;45497;43.996;22.876;2023-02-12T12:16:59;102685.13;;;9.73;35.65
59493;BME280;45497;43.996;22.876;2023-02-12T12:19:57;102687.03;;;9.71;35.90
59493;BME280;45497;43.996;22.876;2023-02-12T12:25:27;102685.63;;;9.90;35.40
59493;BME280;45497;43.996;22.876;2023-02-12T12:28:00;102686.63;;;10.00;35.52
59493;BME280;45497;43.996;22.876;2023-02-12T12:42:01;102701.69;;;9.64;35.32
59493;BME280;45497;43.996;22.876;2023-02-12T12:53:15;102705.31;;;9.39;36.95
59493;BME280;45497;43.996;22.876;2023-02-12T13:01:43;102721.41;;;9.12;36.54
59493;BME280;45497;43.996;22.876;2023-02-12T13:17:43;102734.81;;;9.22;36.80
59493;BME280;45497;43.996;22.876;2023-02-12T13:28:29;102731.75;;;9.28;37.18
59493;BME280;45497;43.996;22.876;2023-02-12T13:30:58;102738.28;;;9.35;37.02
59493;BME280;45497;43.996;22.876;2023-02-12T13:33:39;102735.63;;;9.35;37.29
59493;BME280;45497;43.996;22.876;2023-02-12T13:36:08;102745.03;;;9.39;37.33
59493;BME280;45497;43.996;22.876;2023-02-12T13:41:14;102742.16;;;9.42;36.98
59493;BME280;45497;43.996;22.876;2023-02-12T13:43:56;102750.03;;;9.31;37.27
59493;BME280;45497;43.996;22.876;2023-02-12T13:49:53;102758.41;;;9.25;37.02
59493;BME280;45497;43.996;22.876;2023-02-12T13:52:05;102757.38;;;9.14;37.28
59493;BME280;45497;43.996;22.876;2023-02-12T13:54:56;102761.31;;;9.09;37.63
59493;BME280;45497;43.996;22.876;2023-02-12T13:57:24;102772.34;;;9.03;37.73
59493;BME280;45497;43.996;22.876;2023-02-12T13:59:55;102758.69;;;8.96;37.78
59493;BME280;45497;43.996;22.876;2023-02-12T14:05:16;102762.81;;;9.00;37.46
59493;BME280;45497;43.996;22.876;2023-02-12T14:07:51;102762.44;;;8.93;37.58
59493;BME280;45497;43.996;22.876;2023-02-12T14:10:24;102775.44;;;8.84;37.71
59493;BME280;45497;43.996;22.876;2023-02-12T14:12:53;102780.53;;;8.87;37.87
59493;BME280;45497;43.996;22.876;2023-02-12T14:15:32;102773.66;;;8.84;38.15
59493;BME280;45497;43.996;22.876;2023-02-12T14:18:26;102783.06;;;8.88;38.12
59493;BME280;45497;43.996;22.876;2023-02-12T14:23:53;102791.94;;;8.74;39.12
59493;BME280;45497;43.996;22.876;2023-02-12T14:26:21;102775.44;;;8.71;38.91
59493;BME280;45497;43.996;22.876;2023-02-12T14:29:18;102789.28;;;8.87;38.56
59493;BME280;45497;43.996;22.876;2023-02-12T14:37:14;102783.06;;;8.88;38.60
59493;BME280;45497;43.996;22.876;2023-02-12T14:39:40;102789.19;;;8.89;38.60
59493;BME280;45497;43.996;22.876;2023-02-12T14:44:57;102789.38;;;8.86;38.27
59493;BME280;45497;43.996;22.876;2023-02-12T14:49:58;102772.47;;;8.88;38.58
59493;BME280;45497;43.996;22.876;2023-02-12T14:52:28;102784.31;;;8.95;38.30
59493;BME280;45497;43.996;22.876;2023-02-12T14:54:58;102782.72;;;8.93;38.14
59493;BME280;45497;43.996;22.876;2023-02-12T14:57:39;102795.00;;;8.94;38.30
59493;BME280;45497;43.996;22.876;2023-02-12T15:03:22;102795.44;;;8.75;38.54
59493;BME280;45497;43.996;22.876;2023-02-12T15:09:01;102803.06;;;8.79;38.58
59493;BME280;45497;43.996;22.876;2023-02-12T15:11:44;102812.78;;;8.79;38.98
59493;BME280;45497;43.996;22.876;2023-02-12T15:14:17;102812.91;;;8.77;38.83
59493;BME280;45497;43.996;22.876;2023-02-12T15:16:51;102804.88;;;8.79;39.15
59493;BME280;45497;43.996;22.876;2023-02-12T15:19:33;102816.47;;;8.76;39.10
59493;BME280;45497;43.996;22.876;2023-02-12T15:22:02;102813.94;;;8.62;39.52
59493;BME280;45497;43.996;22.876;2023-02-12T15:24:27;102826.03;;;8.66;39.27
59493;BME280;45497;43.996;22.876;2023-02-12T15:26:57;102821.78;;;8.64;39.80
59493;BME280;45497;43.996;22.876;2023-02-12T15:31:58;102835.09;;;8.62;39.86
59493;BME280;45497;43.996;22.876;2023-02-12T15:34:27;102838.72;;;8.61;39.27
59493;BME280;45497;43.996;22.876;2023-02-12T15:36:59;102843.03;;;8.62;40.05
59493;BME280;45497;43.996;22.876;2023-02-12T15:39:25;102854.75;;;8.58;39.54
59493;BME280;45497;43.996;22.876;2023-02-12T15:41:52;102864.81;;;8.53;40.24
59493;BME280;45497;43.996;22.876;2023-02-12T15:44:19;102869.53;;;8.48;40.21
59493;BME280;45497;43.996;22.876;2023-02-12T15:49:20;102875.06;;;8.57;40.09
59493;BME280;45497;43.996;22.876;2023-02-12T15:51:46;102870.19;;;8.51;40.04